الصفحة الرئيسية
METAR-TAF:

METAR-TAF

مطار :

Touho, نيو كاليدونيا

دائرة عرض: 20-47-25S, خط طول: 165-15-34E, ارتفاع: 3 متر

METAR: مفقودة

زمن: 11:34 (00:34 UTC)

توقعات

تاريخ ووقت الإصدار 7ساعات و 34 دقيقة قبل الساعة 17:00UTC
التوقعات صالحة من19 الساعة 18 UTC إلى 20 الساعة 18 UTC
ريح 2 عقدةمن اتجاهات متغيرة
الرؤية 10 كم أو أكثر
غيوم متفرقة على ارتفاع 4000 قدم
أصبح
من 19 الساعة 20 UTC إلى 19 الساعة 22 UTC
ريح 12 عقدة من الجنوب/الجنوب الغربي
أصبح
من 20 الساعة 10 UTC إلى 20 الساعة 12 UTC
ريح 2 عقدةمن اتجاهات متغيرة

TAF: NWWU 191700Z 1918/2018 VRB02KT 9999 SCT040 BECMG 1920/1922 21012KT BECMG 2010/2012 VRB02KT

أرصاد الطقس والتوقعات من أكثر من 4000 مطار (تقارير الطقس للمطار METAR والتنبؤ بالطقس بالمطارTAF).

المحطات المتاحة هي النقط الصفراء والحمراء على الخريطة.

حرك المؤشر فوق النقطة لمعرفة اسم المحطة.

ثم انقر لمعرفة أرصاد وتوقعات الطقس.

لتغيير الخارطة: اضغط على الأزرار الخضراء مع رمز الصليب الأسود للتكبير. على الزر الأخضر مع شرطة للتصغير، أو على الأسهم الخضراء للخرائط المجاورة.


METAR-TAF: